createdAt,value
2024-02-02T00:01:55.501Z,60.38
2024-02-02T00:04:23.376Z,60.29
2024-02-02T00:06:51.388Z,59.85
2024-02-02T00:09:20.467Z,60.03
2024-02-02T00:11:48.799Z,59.84
2024-02-02T00:14:16.700Z,60.23
2024-02-02T00:16:48.299Z,59.59
2024-02-02T00:19:16.269Z,59.86
2024-02-02T00:21:44.217Z,60.26
2024-02-02T00:24:12.950Z,59.55
2024-02-02T00:26:40.872Z,60.05
2024-02-02T00:29:08.745Z,59.81
2024-02-02T00:31:37.293Z,59.76
2024-02-02T00:34:06.807Z,59.50
2024-02-02T00:36:34.674Z,59.61
2024-02-02T00:39:03.377Z,59.40
2024-02-02T00:41:31.277Z,59.24
2024-02-02T00:43:59.114Z,59.68
2024-02-02T00:46:30.154Z,59.94
2024-02-02T00:48:58.311Z,59.72
2024-02-02T00:51:27.768Z,59.37
2024-02-02T00:53:56.222Z,59.24
2024-02-02T00:56:25.450Z,59.68
2024-02-02T00:58:53.597Z,59.56
2024-02-02T01:01:22.222Z,59.75
2024-02-02T01:03:50.215Z,59.52
2024-02-02T01:06:18.157Z,59.81
2024-02-02T01:08:47.653Z,59.71
2024-02-02T01:11:15.660Z,59.47
2024-02-02T01:13:43.533Z,59.58
2024-02-02T01:16:12.047Z,59.12
2024-02-02T01:18:40.131Z,59.08
2024-02-02T01:21:08.106Z,59.87
2024-02-02T01:23:36.984Z,59.10
2024-02-02T01:26:06.425Z,59.96
2024-02-02T01:28:34.262Z,59.64
2024-02-02T01:31:02.843Z,59.86
2024-02-02T01:33:31.243Z,59.52
2024-02-02T01:35:59.781Z,59.88
2024-02-02T01:38:28.602Z,59.66
2024-02-02T01:40:56.498Z,60.20
2024-02-02T01:43:27.319Z,59.98
2024-02-02T01:45:55.931Z,60.30
2024-02-02T01:48:25.473Z,60.40
2024-02-02T01:50:53.378Z,60.12
2024-02-02T01:53:21.956Z,59.81
2024-02-02T01:55:49.862Z,60.49
2024-02-02T01:58:17.748Z,60.04
2024-02-02T02:00:47.623Z,60.09
2024-02-02T02:03:15.821Z,60.29
2024-02-02T02:05:44.150Z,60.11
2024-02-02T02:08:12.291Z,60.25
2024-02-02T02:10:40.211Z,60.14
2024-02-02T02:13:08.406Z,60.03
2024-02-02T02:15:36.411Z,59.79
2024-02-02T02:18:06.241Z,60.21
2024-02-02T02:20:35.487Z,59.45
2024-02-02T02:23:05.265Z,59.71
2024-02-02T02:25:33.246Z,59.47
2024-02-02T02:28:01.398Z,59.79
2024-02-02T02:30:29.550Z,59.54
2024-02-02T02:32:57.542Z,59.29
2024-02-02T02:35:26.088Z,58.79
2024-02-02T02:37:54.203Z,59.25
2024-02-02T02:40:23.473Z,58.99
2024-02-02T02:42:52.415Z,59.09
2024-02-02T02:45:20.376Z,59.03
2024-02-02T02:47:48.553Z,58.24
2024-02-02T02:50:16.672Z,58.90
2024-02-02T02:52:44.756Z,58.29
2024-02-02T02:55:12.617Z,59.00
2024-02-02T02:57:42.042Z,58.19
2024-02-02T03:00:11.593Z,58.40
2024-02-02T03:02:38.494Z,58.31
2024-02-02T03:05:07.545Z,58.39
2024-02-02T03:07:35.416Z,58.00
2024-02-02T03:10:03.282Z,58.10
2024-02-02T03:12:31.682Z,58.22
2024-02-02T03:15:01.278Z,58.30
2024-02-02T03:17:29.247Z,58.41
2024-02-02T03:19:57.143Z,58.34
2024-02-02T03:22:25.293Z,58.67
2024-02-02T03:24:53.427Z,58.66
2024-02-02T03:27:22.653Z,57.94
2024-02-02T03:29:50.605Z,58.19
2024-02-02T03:32:20.195Z,58.38
2024-02-02T03:34:48.184Z,57.92
2024-02-02T03:37:16.652Z,58.17
2024-02-02T03:39:46.895Z,58.01
2024-02-02T03:42:15.088Z,58.29
2024-02-02T03:44:43.247Z,58.05
2024-02-02T03:47:11.106Z,58.04
2024-02-02T03:49:40.597Z,57.97
2024-02-02T03:52:08.977Z,57.98
2024-02-02T03:54:37.257Z,57.75
2024-02-02T03:57:05.540Z,58.24
2024-02-02T03:59:33.831Z,58.27
2024-02-02T04:02:01.954Z,58.50
2024-02-02T04:04:30.554Z,58.02
2024-02-02T04:06:59.842Z,58.09
2024-02-02T04:09:28.372Z,58.29
2024-02-02T04:11:56.386Z,58.38
2024-02-02T04:14:24.757Z,57.53
2024-02-02T04:16:52.633Z,58.08
2024-02-02T04:19:22.523Z,58.00
2024-02-02T04:21:51.489Z,57.36
2024-02-02T04:24:20.765Z,57.64
2024-02-02T04:26:48.725Z,57.65
2024-02-02T04:29:17.035Z,57.28
2024-02-02T04:31:45.411Z,57.43
2024-02-02T04:34:13.482Z,56.93
2024-02-02T04:36:42.584Z,57.16
2024-02-02T04:39:11.149Z,57.56
2024-02-02T04:41:40.400Z,56.87
2024-02-02T04:44:08.715Z,57.02
2024-02-02T04:46:36.612Z,56.63
2024-02-02T04:49:04.709Z,57.41
2024-02-02T04:51:33.141Z,57.08
2024-02-02T04:54:01.458Z,57.32
2024-02-02T04:56:29.600Z,56.93
2024-02-02T04:58:59.150Z,57.07
2024-02-02T05:01:27.419Z,57.74
2024-02-02T05:03:55.334Z,56.98
2024-02-02T05:06:23.927Z,57.69
2024-02-02T05:08:52.370Z,57.03
2024-02-02T05:11:20.270Z,57.10
2024-02-02T05:13:48.507Z,56.97
2024-02-02T05:16:18.192Z,57.30
2024-02-02T05:18:46.031Z,57.42
2024-02-02T05:21:14.053Z,57.73
2024-02-02T05:23:48.690Z,57.18
2024-02-02T05:26:18.452Z,56.79
2024-02-02T05:28:46.965Z,57.50
2024-02-02T05:31:14.873Z,57.18
2024-02-02T05:33:47.336Z,57.38
2024-02-02T05:36:15.678Z,56.95
2024-02-02T05:38:43.977Z,56.96
2024-02-02T05:41:12.247Z,57.13
2024-02-02T05:43:40.132Z,57.54
2024-02-02T05:46:08.351Z,57.10
2024-02-02T05:48:36.485Z,57.46
2024-02-02T05:51:06.307Z,57.22
2024-02-02T05:53:34.518Z,57.83
2024-02-02T05:56:03.082Z,57.31
2024-02-02T05:58:30.933Z,58.06
2024-02-02T06:00:59.197Z,58.35
2024-02-02T06:03:27.666Z,58.50
2024-02-02T06:05:55.642Z,57.64
2024-02-02T06:08:25.351Z,58.22
2024-02-02T06:10:53.447Z,58.84
2024-02-02T06:13:21.357Z,58.43
2024-02-02T06:15:49.560Z,58.47
2024-02-02T06:18:18.310Z,58.34
2024-02-02T06:20:46.330Z,58.36
2024-02-02T06:23:14.646Z,58.69
2024-02-02T06:25:43.906Z,58.42
2024-02-02T06:28:11.810Z,58.84
2024-02-02T06:30:40.351Z,59.26
2024-02-02T06:33:09.042Z,59.41
2024-02-02T06:35:36.962Z,59.02
2024-02-02T06:38:05.215Z,59.43
2024-02-02T06:40:33.086Z,58.95
2024-02-02T06:43:02.334Z,58.77
2024-02-02T06:45:30.626Z,58.65
2024-02-02T06:47:58.626Z,59.15
2024-02-02T06:50:31.639Z,59.00
2024-02-02T06:52:59.920Z,58.85
2024-02-02T06:55:27.849Z,58.88
2024-02-02T06:57:55.797Z,59.38
2024-02-02T07:00:25.498Z,59.26
2024-02-02T07:02:53.509Z,59.40
2024-02-02T07:05:23.194Z,59.58
2024-02-02T07:07:51.892Z,60.27
2024-02-02T07:10:19.967Z,60.38
2024-02-02T07:13:04.526Z,59.58
2024-02-02T07:15:41.099Z,60.33
2024-02-02T07:18:29.236Z,60.48
2024-02-02T07:21:04.587Z,59.75
2024-02-02T07:23:36.721Z,60.22
2024-02-02T07:26:19.679Z,60.37
2024-02-02T07:28:47.746Z,60.43
2024-02-02T07:31:35.369Z,60.58
2024-02-02T07:34:08.357Z,59.88
2024-02-02T07:36:37.039Z,59.70
2024-02-02T07:39:05.275Z,60.32
2024-02-02T07:41:33.483Z,60.70
2024-02-02T07:44:02.965Z,60.51
2024-02-02T07:46:32.388Z,60.32
2024-02-02T07:49:00.754Z,60.79
2024-02-02T07:51:28.899Z,60.55
2024-02-02T07:53:56.922Z,60.80
2024-02-02T07:56:26.274Z,60.86
2024-02-02T07:58:56.250Z,60.76
2024-02-02T08:01:24.161Z,61.14
2024-02-02T08:03:53.670Z,61.77
2024-02-02T08:06:22.141Z,61.17
2024-02-02T08:08:50.061Z,61.44
2024-02-02T08:11:17.968Z,61.19
2024-02-02T08:13:45.870Z,61.74
2024-02-02T08:16:13.734Z,61.31
2024-02-02T08:18:43.602Z,62.12
2024-02-02T08:21:12.938Z,61.82
2024-02-02T08:23:41.035Z,61.39
2024-02-02T08:26:08.972Z,62.59
2024-02-02T08:28:45.627Z,62.33
2024-02-02T08:31:19.544Z,62.54
2024-02-02T08:33:47.617Z,62.80
2024-02-02T08:36:19.149Z,62.64
2024-02-02T08:38:47.240Z,62.39
2024-02-02T08:41:15.128Z,63.13
2024-02-02T08:43:43.474Z,62.59
2024-02-02T08:46:14.549Z,63.48
2024-02-02T08:48:45.944Z,63.84
2024-02-02T08:51:48.416Z,63.80
2024-02-02T08:54:47.558Z,63.32
2024-02-02T08:57:46.619Z,63.81
2024-02-02T09:00:32.700Z,63.44
2024-02-02T09:03:28.464Z,64.08
2024-02-02T09:05:58.218Z,63.78
2024-02-02T09:08:36.651Z,64.08
2024-02-02T09:11:23.731Z,63.54
2024-02-02T09:14:08.573Z,63.93
2024-02-02T09:16:43.315Z,63.64
2024-02-02T09:19:29.738Z,63.91
2024-02-02T09:22:00.676Z,63.73
2024-02-02T09:24:41.454Z,64.50
2024-02-02T09:27:14.178Z,64.47
2024-02-02T09:29:53.031Z,64.19
2024-02-02T09:32:20.936Z,64.03
2024-02-02T09:34:49.310Z,65.29
2024-02-02T09:37:23.192Z,64.53
2024-02-02T09:39:55.564Z,64.14
2024-02-02T09:42:55.957Z,64.73
2024-02-02T09:45:56.660Z,64.71
2024-02-02T09:48:39.117Z,64.51
2024-02-02T09:51:15.836Z,65.34
2024-02-02T09:54:15.856Z,65.33
2024-02-02T09:56:57.438Z,65.34
2024-02-02T09:59:36.872Z,65.83
2024-02-02T10:02:25.549Z,66.26
2024-02-02T10:05:06.615Z,66.61
2024-02-02T10:07:46.005Z,67.32
2024-02-02T10:10:43.878Z,66.04
2024-02-02T10:13:27.539Z,66.85
2024-02-02T10:16:20.030Z,66.89
2024-02-02T10:19:15.727Z,67.21
2024-02-02T10:21:55.446Z,66.85
2024-02-02T10:24:35.333Z,67.96
2024-02-02T10:27:22.400Z,68.07
2024-02-02T10:30:06.785Z,67.60
2024-02-02T10:33:04.534Z,68.69
2024-02-02T10:35:38.058Z,67.94
2024-02-02T10:38:18.583Z,68.30
2024-02-02T10:40:54.009Z,68.39
2024-02-02T10:43:31.335Z,68.40
2024-02-02T10:46:12.806Z,68.68
2024-02-02T10:49:02.968Z,68.91
2024-02-02T10:51:41.421Z,68.30
2024-02-02T10:54:23.244Z,68.85
2024-02-02T10:57:03.627Z,67.86
2024-02-02T10:59:40.443Z,68.52
2024-02-02T11:02:21.899Z,69.00
2024-02-02T11:05:00.738Z,68.92
2024-02-02T11:07:31.115Z,69.60
2024-02-02T11:10:02.100Z,69.65
2024-02-02T11:12:41.713Z,68.91
2024-02-02T11:15:24.131Z,69.54
2024-02-02T11:18:04.363Z,69.72
2024-02-02T11:20:48.843Z,68.78
2024-02-02T11:23:25.595Z,69.10
2024-02-02T11:25:58.636Z,69.18
2024-02-02T11:28:33.572Z,70.05
2024-02-02T11:31:13.764Z,69.66
2024-02-02T11:33:54.944Z,69.88
2024-02-02T11:36:39.289Z,69.54
2024-02-02T11:39:23.619Z,69.57
2024-02-02T11:41:52.610Z,69.86
2024-02-02T11:44:21.340Z,70.21
2024-02-02T11:46:49.760Z,70.39
2024-02-02T11:49:24.943Z,70.48
2024-02-02T11:51:57.201Z,70.62
2024-02-02T11:54:31.837Z,69.74
2024-02-02T11:57:05.279Z,70.61
2024-02-02T11:59:35.220Z,70.56
2024-02-02T12:02:22.791Z,70.86
2024-02-02T12:04:57.694Z,69.97
2024-02-02T12:07:41.413Z,69.92
2024-02-02T12:10:11.552Z,70.24
2024-02-02T12:12:44.720Z,70.31
2024-02-02T12:15:13.200Z,69.85
2024-02-02T12:17:41.397Z,69.72
2024-02-02T12:20:18.946Z,69.74
2024-02-02T12:22:48.290Z,69.70
2024-02-02T12:25:17.231Z,70.02
2024-02-02T12:27:45.280Z,70.04
2024-02-02T12:30:13.907Z,70.25
2024-02-02T12:32:41.815Z,69.77
2024-02-02T12:35:12.632Z,69.85
2024-02-02T12:37:47.551Z,69.62
2024-02-02T12:40:15.695Z,70.12
2024-02-02T12:42:44.151Z,69.90
2024-02-02T12:45:13.878Z,70.27
2024-02-02T12:47:42.719Z,70.15
2024-02-02T12:50:17.270Z,70.16
2024-02-02T12:52:46.496Z,70.08
2024-02-02T12:55:14.884Z,69.78
2024-02-02T12:57:43.264Z,70.18
2024-02-02T13:00:15.488Z,69.88
2024-02-02T13:02:44.590Z,69.63
2024-02-02T13:05:17.971Z,70.13
2024-02-02T13:07:48.978Z,70.66
2024-02-02T13:10:18.703Z,70.19
2024-02-02T13:12:46.883Z,70.60
2024-02-02T13:15:17.350Z,69.70
2024-02-02T13:17:45.778Z,69.92
2024-02-02T13:20:20.509Z,69.70
2024-02-02T13:22:51.511Z,69.72
2024-02-02T13:25:25.613Z,69.98
2024-02-02T13:27:55.228Z,70.20
2024-02-02T13:30:25.377Z,70.47
2024-02-02T13:32:53.713Z,70.13
2024-02-02T13:35:27.211Z,69.95
2024-02-02T13:37:55.237Z,69.78
2024-02-02T13:40:28.986Z,69.99
2024-02-02T13:42:59.347Z,70.28
2024-02-02T13:45:29.899Z,69.96
2024-02-02T13:48:01.264Z,70.08
2024-02-02T13:50:41.589Z,70.66
2024-02-02T13:53:10.301Z,70.00
2024-02-02T13:55:39.225Z,70.31
2024-02-02T13:58:07.575Z,70.06
2024-02-02T14:00:35.552Z,70.54
2024-02-02T14:03:08.683Z,70.73
2024-02-02T14:05:38.325Z,70.56
2024-02-02T14:08:06.327Z,70.58
2024-02-02T14:10:43.056Z,70.54
2024-02-02T14:13:16.018Z,70.45
2024-02-02T14:15:44.130Z,70.63
2024-02-02T14:18:14.280Z,70.58
2024-02-02T14:20:44.026Z,70.16
2024-02-02T14:23:12.781Z,70.74
2024-02-02T14:25:41.129Z,70.77
2024-02-02T14:28:16.273Z,70.41
2024-02-02T14:30:44.867Z,70.76
2024-02-02T14:33:21.780Z,70.86
2024-02-02T14:35:55.764Z,70.84
2024-02-02T14:38:23.662Z,70.73
2024-02-02T14:40:54.356Z,70.83
2024-02-02T14:43:22.457Z,70.86
2024-02-02T14:45:50.888Z,70.87
2024-02-02T14:48:20.367Z,70.91
2024-02-02T14:50:48.839Z,70.54
2024-02-02T14:53:18.124Z,70.91
2024-02-02T14:55:46.255Z,70.87
2024-02-02T14:58:15.256Z,70.61
2024-02-02T15:00:45.871Z,71.12
2024-02-02T15:03:14.601Z,70.41
2024-02-02T15:05:42.567Z,70.39
2024-02-02T15:08:11.417Z,70.59
2024-02-02T15:10:42.109Z,70.54
2024-02-02T15:13:13.494Z,70.06
2024-02-02T15:15:41.371Z,70.00
2024-02-02T15:18:09.672Z,70.28
2024-02-02T15:20:37.849Z,70.58
2024-02-02T15:23:06.198Z,70.47
2024-02-02T15:25:34.030Z,70.87
2024-02-02T15:28:03.273Z,70.68
2024-02-02T15:30:32.011Z,70.42
2024-02-02T15:33:00.061Z,71.08
2024-02-02T15:35:28.046Z,70.69
2024-02-02T15:37:55.925Z,70.94
2024-02-02T15:40:23.884Z,70.78
2024-02-02T15:42:51.895Z,70.74
2024-02-02T15:45:21.476Z,71.18
2024-02-02T15:47:51.945Z,70.84
2024-02-02T15:50:20.297Z,70.57
2024-02-02T15:52:49.048Z,70.30
2024-02-02T15:55:16.936Z,71.00
2024-02-02T15:57:50.269Z,70.99
2024-02-02T16:00:18.997Z,71.29
2024-02-02T16:02:48.458Z,71.44
2024-02-02T16:05:17.876Z,71.27
2024-02-02T16:07:45.914Z,71.32
2024-02-02T16:10:14.644Z,71.50
2024-02-02T16:12:42.946Z,71.19
2024-02-02T16:15:11.673Z,71.64
2024-02-02T16:17:40.565Z,71.59
2024-02-02T16:20:11.934Z,71.52
2024-02-02T16:22:40.691Z,71.91
2024-02-02T16:25:10.875Z,71.96
2024-02-02T16:27:40.203Z,71.52
2024-02-02T16:30:11.102Z,71.79
2024-02-02T16:32:39.025Z,71.60
2024-02-02T16:35:09.049Z,71.87
2024-02-02T16:37:40.842Z,71.71
2024-02-02T16:40:09.946Z,71.65
2024-02-02T16:42:40.429Z,71.47
2024-02-02T16:45:09.745Z,71.69
2024-02-02T16:47:37.675Z,71.18
2024-02-02T16:50:07.849Z,71.38
2024-02-02T16:52:37.284Z,71.80
2024-02-02T16:55:07.558Z,71.78
2024-02-02T16:57:35.622Z,71.66
2024-02-02T17:00:06.143Z,71.80
2024-02-02T17:02:34.853Z,71.83
2024-02-02T17:05:02.834Z,71.83
2024-02-02T17:07:30.957Z,72.27
2024-02-02T17:09:59.173Z,71.88
2024-02-02T17:12:28.500Z,71.76
2024-02-02T17:14:57.338Z,71.74
2024-02-02T17:17:25.234Z,72.02
2024-02-02T17:19:53.302Z,71.65
2024-02-02T17:22:21.193Z,72.46
2024-02-02T17:24:49.131Z,72.50
2024-02-02T17:27:17.081Z,72.11
2024-02-02T17:29:46.359Z,72.14
2024-02-02T17:32:17.445Z,72.07
2024-02-02T17:34:48.516Z,72.21
2024-02-02T17:37:17.045Z,72.02
2024-02-02T17:39:46.029Z,71.84
2024-02-02T17:42:13.973Z,72.64
2024-02-02T17:44:43.277Z,72.45
2024-02-02T17:47:12.473Z,72.27
2024-02-02T17:49:45.626Z,72.18
2024-02-02T17:52:17.531Z,72.31
2024-02-02T17:54:45.491Z,72.02
2024-02-02T17:57:13.480Z,71.89
2024-02-02T17:59:41.874Z,72.62
2024-02-02T18:02:10.912Z,72.20
2024-02-02T18:04:40.275Z,72.24
2024-02-02T18:07:10.576Z,72.60
2024-02-02T18:09:39.743Z,72.27
2024-02-02T18:12:12.050Z,72.06
2024-02-02T18:14:40.044Z,71.82
2024-02-02T18:17:07.941Z,72.04
2024-02-02T18:19:35.955Z,72.33
2024-02-02T18:22:05.619Z,72.33
2024-02-02T18:24:33.367Z,72.50
2024-02-02T18:27:01.882Z,72.25
2024-02-02T18:29:29.806Z,72.14
2024-02-02T18:31:57.644Z,72.13
2024-02-02T18:34:25.517Z,72.58
2024-02-02T18:36:53.502Z,72.53
2024-02-02T18:39:22.830Z,72.41
2024-02-02T18:41:50.876Z,72.52
2024-02-02T18:44:18.772Z,73.00
2024-02-02T18:46:46.648Z,72.39
2024-02-02T18:49:14.891Z,72.72
2024-02-02T18:51:42.862Z,72.31
2024-02-02T18:54:13.616Z,72.16
2024-02-02T18:56:44.014Z,72.58
2024-02-02T18:59:11.992Z,72.32
2024-02-02T19:01:39.908Z,72.06
2024-02-02T19:04:09.235Z,72.12
2024-02-02T19:06:39.380Z,72.10
2024-02-02T19:09:07.703Z,72.38
2024-02-02T19:11:35.692Z,71.84
2024-02-02T19:14:06.499Z,72.19
2024-02-02T19:16:34.479Z,71.82
2024-02-02T19:19:02.659Z,72.34
2024-02-02T19:21:32.608Z,71.90
2024-02-02T19:24:02.825Z,72.07
2024-02-02T19:26:30.750Z,71.60
2024-02-02T19:28:58.632Z,71.81
2024-02-02T19:31:29.016Z,71.78
2024-02-02T19:33:57.537Z,71.62
2024-02-02T19:36:27.443Z,71.63
2024-02-02T19:38:56.290Z,71.88
2024-02-02T19:41:25.403Z,71.48
2024-02-02T19:43:54.368Z,71.78
2024-02-02T19:46:23.717Z,71.98
2024-02-02T19:48:54.377Z,71.86
2024-02-02T19:51:24.075Z,71.37
2024-02-02T19:53:51.932Z,71.80
2024-02-02T19:56:20.354Z,71.77
2024-02-02T19:58:49.306Z,71.26
2024-02-02T20:01:19.580Z,71.37
2024-02-02T20:03:50.147Z,71.05
2024-02-02T20:06:21.562Z,71.17
2024-02-02T20:08:51.536Z,71.15
2024-02-02T20:11:21.110Z,71.18
2024-02-02T20:13:49.788Z,71.25
2024-02-02T20:16:19.367Z,70.90
2024-02-02T20:18:47.825Z,70.69
2024-02-02T20:21:16.606Z,70.75
2024-02-02T20:23:46.875Z,71.02
2024-02-02T20:26:18.329Z,70.75
2024-02-02T20:28:47.303Z,70.84
2024-02-02T20:31:15.224Z,70.61
2024-02-02T20:33:43.213Z,70.47
2024-02-02T20:36:12.277Z,70.76
2024-02-02T20:38:42.898Z,71.20
2024-02-02T20:41:14.926Z,70.86
2024-02-02T20:43:43.029Z,70.57
2024-02-02T20:46:13.174Z,70.59
2024-02-02T20:48:41.511Z,70.72
2024-02-02T20:51:10.199Z,70.36
2024-02-02T20:53:38.749Z,70.68
2024-02-02T20:56:07.505Z,70.64
2024-02-02T20:58:36.764Z,70.73
2024-02-02T21:01:05.354Z,70.38
2024-02-02T21:03:33.651Z,69.96
2024-02-02T21:06:02.087Z,70.23
2024-02-02T21:08:30.181Z,70.00
2024-02-02T21:10:58.067Z,69.94
2024-02-02T21:13:25.889Z,69.83
2024-02-02T21:15:55.212Z,69.92
2024-02-02T21:18:24.931Z,69.95
2024-02-02T21:20:54.178Z,69.97
2024-02-02T21:23:22.278Z,69.60
2024-02-02T21:25:50.644Z,69.23
2024-02-02T21:28:20.532Z,68.97
2024-02-02T21:30:49.749Z,69.33
2024-02-02T21:33:27.832Z,69.18
2024-02-02T21:35:56.070Z,69.31
2024-02-02T21:38:23.956Z,68.82
2024-02-02T21:40:52.187Z,68.79
2024-02-02T21:43:20.070Z,69.23
2024-02-02T21:45:49.527Z,68.95
2024-02-02T21:48:17.662Z,68.47
2024-02-02T21:50:47.003Z,69.05
2024-02-02T21:53:15.172Z,68.60
2024-02-02T21:55:43.449Z,68.82
2024-02-02T21:58:11.312Z,68.56
2024-02-02T22:00:39.419Z,69.02
2024-02-02T22:03:07.619Z,68.57
2024-02-02T22:05:35.536Z,68.61
2024-02-02T22:08:05.078Z,68.79
2024-02-02T22:10:34.271Z,68.87
2024-02-02T22:13:02.151Z,68.61
2024-02-02T22:15:30.662Z,68.62
2024-02-02T22:17:58.810Z,68.71
2024-02-02T22:20:26.755Z,68.64
2024-02-02T22:22:55.368Z,68.58
2024-02-02T22:25:25.069Z,69.08
2024-02-02T22:27:53.128Z,69.19
2024-02-02T22:30:21.056Z,69.35
2024-02-02T22:32:49.452Z,69.27
2024-02-02T22:35:17.515Z,68.95
2024-02-02T22:37:45.408Z,69.11
2024-02-02T22:40:14.364Z,68.83
2024-02-02T22:42:43.632Z,69.21
2024-02-02T22:45:12.884Z,68.91
2024-02-02T22:47:40.926Z,69.24
2024-02-02T22:50:11.466Z,69.07
2024-02-02T22:52:39.767Z,69.09
2024-02-02T22:55:08.270Z,69.18
2024-02-02T22:57:36.115Z,69.45
2024-02-02T23:00:11.034Z,69.32
2024-02-02T23:02:38.954Z,69.24
2024-02-02T23:05:07.005Z,69.21
2024-02-02T23:07:35.035Z,69.44
2024-02-02T23:10:02.899Z,69.50
2024-02-02T23:12:30.763Z,69.64
2024-02-02T23:14:58.841Z,70.10
2024-02-02T23:17:28.049Z,69.64
2024-02-02T23:19:56.075Z,69.73
2024-02-02T23:22:24.774Z,69.48
2024-02-02T23:24:52.677Z,69.64
2024-02-02T23:27:20.649Z,69.75
2024-02-02T23:29:48.548Z,69.68
2024-02-02T23:32:16.406Z,69.78
2024-02-02T23:34:45.694Z,69.68
2024-02-02T23:37:13.803Z,69.72
2024-02-02T23:39:41.905Z,69.56
2024-02-02T23:42:10.602Z,69.34
2024-02-02T23:44:38.641Z,69.83
2024-02-02T23:47:07.003Z,69.85
2024-02-02T23:49:35.021Z,69.53
2024-02-02T23:52:04.744Z,69.62
2024-02-02T23:54:32.405Z,69.75
2024-02-02T23:57:00.438Z,69.71
2024-02-02T23:59:28.620Z,69.73
